sensor_id;sensor_type;location;lat;lon;timestamp;temperature;humidity
16273;DHT22;8244;50.044;9.006;2023-03-01T00:04:27;-0.30;99.90
16273;DHT22;8244;50.044;9.006;2023-03-01T00:09:29;-0.30;99.90
16273;DHT22;8244;50.044;9.006;2023-03-01T00:14:32;-0.30;99.90
16273;DHT22;8244;50.044;9.006;2023-03-01T00:19:34;-0.30;99.90
16273;DHT22;8244;50.044;9.006;2023-03-01T00:24:36;-0.40;99.90
16273;DHT22;8244;50.044;9.006;2023-03-01T00:29:39;-0.40;99.90
16273;DHT22;8244;50.044;9.006;2023-03-01T00:34:40;-0.50;99.90
16273;DHT22;8244;50.044;9.006;2023-03-01T00:39:42;-0.50;99.90
16273;DHT22;8244;50.044;9.006;2023-03-01T00:44:45;-0.60;99.90
16273;DHT22;8244;50.044;9.006;2023-03-01T00:49:47;-0.70;99.90
16273;DHT22;8244;50.044;9.006;2023-03-01T00:54:48;-0.80;99.90
16273;DHT22;8244;50.044;9.006;2023-03-01T00:59:54;-0.90;99.90
16273;DHT22;8244;50.044;9.006;2023-03-01T01:04:56;-0.90;99.90
16273;DHT22;8244;50.044;9.006;2023-03-01T01:09:57;-0.90;99.90
16273;DHT22;8244;50.044;9.006;2023-03-01T01:15:00;-0.90;99.90
16273;DHT22;8244;50.044;9.006;2023-03-01T01:20:02;-0.80;99.90
16273;DHT22;8244;50.044;9.006;2023-03-01T01:25:05;-0.90;99.90
16273;DHT22;8244;50.044;9.006;2023-03-01T01:30:09;-0.80;99.90
16273;DHT22;8244;50.044;9.006;2023-03-01T01:35:11;-0.80;99.90
16273;DHT22;8244;50.044;9.006;2023-03-01T01:40:13;-0.70;99.90
16273;DHT22;8244;50.044;9.006;2023-03-01T01:45:31;-0.80;99.90
16273;DHT22;8244;50.044;9.006;2023-03-01T01:50:34;-0.80;99.90
16273;DHT22;8244;50.044;9.006;2023-03-01T01:55:42;-0.80;99.90
16273;DHT22;8244;50.044;9.006;2023-03-01T02:00:45;-0.80;99.90
16273;DHT22;8244;50.044;9.006;2023-03-01T02:05:50;-0.80;99.90
16273;DHT22;8244;50.044;9.006;2023-03-01T02:10:54;-0.80;99.90
16273;DHT22;8244;50.044;9.006;2023-03-01T02:15:58;-0.80;99.90
16273;DHT22;8244;50.044;9.006;2023-03-01T02:21:12;-0.80;99.90
16273;DHT22;8244;50.044;9.006;2023-03-01T02:26:20;-0.80;99.90
16273;DHT22;8244;50.044;9.006;2023-03-01T02:31:26;-0.90;99.90
16273;DHT22;8244;50.044;9.006;2023-03-01T02:36:46;-1.00;99.90
16273;DHT22;8244;50.044;9.006;2023-03-01T02:41:51;-1.00;99.90
16273;DHT22;8244;50.044;9.006;2023-03-01T02:46:56;-1.00;99.90
16273;DHT22;8244;50.044;9.006;2023-03-01T02:52:16;-1.00;99.90
16273;DHT22;8244;50.044;9.006;2023-03-01T02:57:22;-1.10;99.90
16273;DHT22;8244;50.044;9.006;2023-03-01T03:02:28;-1.10;99.90
16273;DHT22;8244;50.044;9.006;2023-03-01T03:07:39;-1.10;99.90
16273;DHT22;8244;50.044;9.006;2023-03-01T03:12:42;-1.10;99.90
16273;DHT22;8244;50.044;9.006;2023-03-01T03:17:45;-1.10;99.90
16273;DHT22;8244;50.044;9.006;2023-03-01T03:22:48;-1.10;99.90
16273;DHT22;8244;50.044;9.006;2023-03-01T03:27:51;-1.00;99.90
16273;DHT22;8244;50.044;9.006;2023-03-01T03:32:58;-1.00;99.90
16273;DHT22;8244;50.044;9.006;2023-03-01T03:38:04;-1.00;99.90
16273;DHT22;8244;50.044;9.006;2023-03-01T03:43:09;-0.90;99.90
16273;DHT22;8244;50.044;9.006;2023-03-01T03:48:13;-0.80;99.90
16273;DHT22;8244;50.044;9.006;2023-03-01T03:53:14;-0.90;99.90
16273;DHT22;8244;50.044;9.006;2023-03-01T03:58:17;-0.90;99.90
16273;DHT22;8244;50.044;9.006;2023-03-01T04:03:21;-0.90;99.90
16273;DHT22;8244;50.044;9.006;2023-03-01T04:08:24;-0.90;99.90
16273;DHT22;8244;50.044;9.006;2023-03-01T04:13:26;-0.90;99.90
16273;DHT22;8244;50.044;9.006;2023-03-01T04:18:29;-0.90;99.90
16273;DHT22;8244;50.044;9.006;2023-03-01T04:23:31;-0.90;99.90
16273;DHT22;8244;50.044;9.006;2023-03-01T04:28:34;-0.90;99.90
16273;DHT22;8244;50.044;9.006;2023-03-01T04:33:38;-0.90;99.90
16273;DHT22;8244;50.044;9.006;2023-03-01T04:38:41;-0.80;99.90
16273;DHT22;8244;50.044;9.006;2023-03-01T04:43:47;-0.80;99.90
16273;DHT22;8244;50.044;9.006;2023-03-01T04:48:51;-0.80;99.90
16273;DHT22;8244;50.044;9.006;2023-03-01T04:53:52;-0.80;99.90
16273;DHT22;8244;50.044;9.006;2023-03-01T04:58:54;-0.70;99.90
16273;DHT22;8244;50.044;9.006;2023-03-01T05:03:57;-0.70;99.90
16273;DHT22;8244;50.044;9.006;2023-03-01T05:09:03;-0.70;99.90
16273;DHT22;8244;50.044;9.006;2023-03-01T05:14:06;-0.70;99.90
16273;DHT22;8244;50.044;9.006;2023-03-01T05:19:09;-0.70;99.90
16273;DHT22;8244;50.044;9.006;2023-03-01T05:24:15;-0.80;99.90
16273;DHT22;8244;50.044;9.006;2023-03-01T05:29:17;-0.80;99.90
16273;DHT22;8244;50.044;9.006;2023-03-01T05:34:28;-0.80;99.90
16273;DHT22;8244;50.044;9.006;2023-03-01T05:39:30;-0.80;99.90
16273;DHT22;8244;50.044;9.006;2023-03-01T05:44:31;-0.80;99.90
16273;DHT22;8244;50.044;9.006;2023-03-01T05:49:34;-0.80;99.90
16273;DHT22;8244;50.044;9.006;2023-03-01T05:54:36;-0.80;99.90
16273;DHT22;8244;50.044;9.006;2023-03-01T05:59:39;-0.80;99.90
16273;DHT22;8244;50.044;9.006;2023-03-01T06:04:41;-0.70;99.90
16273;DHT22;8244;50.044;9.006;2023-03-01T06:09:43;-0.70;99.90
16273;DHT22;8244;50.044;9.006;2023-03-01T06:14:45;-0.70;99.90
16273;DHT22;8244;50.044;9.006;2023-03-01T06:19:49;-0.60;99.90
16273;DHT22;8244;50.044;9.006;2023-03-01T06:24:50;-0.60;99.90
16273;DHT22;8244;50.044;9.006;2023-03-01T06:29:52;-0.60;99.90
16273;DHT22;8244;50.044;9.006;2023-03-01T06:34:55;-0.50;99.90
16273;DHT22;8244;50.044;9.006;2023-03-01T06:39:58;-0.50;99.90
16273;DHT22;8244;50.044;9.006;2023-03-01T06:45:00;-0.50;99.90
16273;DHT22;8244;50.044;9.006;2023-03-01T06:50:03;-0.50;99.90
16273;DHT22;8244;50.044;9.006;2023-03-01T06:55:06;-0.40;99.90
16273;DHT22;8244;50.044;9.006;2023-03-01T07:00:09;-0.30;99.90
16273;DHT22;8244;50.044;9.006;2023-03-01T07:05:12;-0.10;99.90
16273;DHT22;8244;50.044;9.006;2023-03-01T07:10:13;0.10;99.90
16273;DHT22;8244;50.044;9.006;2023-03-01T07:15:15;0.30;99.90
16273;DHT22;8244;50.044;9.006;2023-03-01T07:20:19;0.50;99.90
16273;DHT22;8244;50.044;9.006;2023-03-01T07:25:22;0.80;99.90
16273;DHT22;8244;50.044;9.006;2023-03-01T07:30:24;1.20;99.90
16273;DHT22;8244;50.044;9.006;2023-03-01T07:35:29;1.40;99.90
16273;DHT22;8244;50.044;9.006;2023-03-01T07:40:33;1.60;99.90
16273;DHT22;8244;50.044;9.006;2023-03-01T07:45:35;1.80;99.90
16273;DHT22;8244;50.044;9.006;2023-03-01T07:50:38;2.00;99.90
16273;DHT22;8244;50.044;9.006;2023-03-01T07:55:40;2.50;99.90
16273;DHT22;8244;50.044;9.006;2023-03-01T08:00:41;3.10;99.90
16273;DHT22;8244;50.044;9.006;2023-03-01T08:05:44;3.90;99.90
16273;DHT22;8244;50.044;9.006;2023-03-01T08:10:46;4.40;99.90
16273;DHT22;8244;50.044;9.006;2023-03-01T08:15:48;5.20;99.90
16273;DHT22;8244;50.044;9.006;2023-03-01T08:20:51;6.00;99.90
16273;DHT22;8244;50.044;9.006;2023-03-01T08:25:52;7.00;99.90
16273;DHT22;8244;50.044;9.006;2023-03-01T08:30:54;7.70;97.70
16273;DHT22;8244;50.044;9.006;2023-03-01T08:36:04;8.00;94.10
16273;DHT22;8244;50.044;9.006;2023-03-01T08:41:07;7.70;95.30
16273;DHT22;8244;50.044;9.006;2023-03-01T08:46:09;8.10;93.80
16273;DHT22;8244;50.044;9.006;2023-03-01T08:51:14;8.30;92.20
16273;DHT22;8244;50.044;9.006;2023-03-01T08:56:17;7.70;93.40
16273;DHT22;8244;50.044;9.006;2023-03-01T09:01:19;8.30;92.80
16273;DHT22;8244;50.044;9.006;2023-03-01T09:06:22;8.50;93.30
16273;DHT22;8244;50.044;9.006;2023-03-01T09:11:24;8.70;92.50
16273;DHT22;8244;50.044;9.006;2023-03-01T09:16:26;9.00;91.80
16273;DHT22;8244;50.044;9.006;2023-03-01T09:21:29;9.00;91.50
16273;DHT22;8244;50.044;9.006;2023-03-01T09:26:30;8.90;91.20
16273;DHT22;8244;50.044;9.006;2023-03-01T09:31:32;8.20;90.60
16273;DHT22;8244;50.044;9.006;2023-03-01T09:36:35;7.80;91.20
16273;DHT22;8244;50.044;9.006;2023-03-01T09:41:50;7.70;91.30
16273;DHT22;8244;50.044;9.006;2023-03-01T09:46:53;7.90;91.10
16273;DHT22;8244;50.044;9.006;2023-03-01T09:51:59;8.10;91.80
16273;DHT22;8244;50.044;9.006;2023-03-01T09:57:11;8.50;90.90
16273;DHT22;8244;50.044;9.006;2023-03-01T10:02:23;8.80;90.50
16273;DHT22;8244;50.044;9.006;2023-03-01T10:07:32;8.90;90.60
16273;DHT22;8244;50.044;9.006;2023-03-01T10:12:41;9.00;89.90
16273;DHT22;8244;50.044;9.006;2023-03-01T10:17:48;9.40;91.40
16273;DHT22;8244;50.044;9.006;2023-03-01T10:22:52;9.80;89.70
16273;DHT22;8244;50.044;9.006;2023-03-01T10:28:01;10.30;87.10
16273;DHT22;8244;50.044;9.006;2023-03-01T10:33:04;10.80;86.50
16273;DHT22;8244;50.044;9.006;2023-03-01T10:38:13;11.10;84.20
16273;DHT22;8244;50.044;9.006;2023-03-01T10:43:15;11.30;86.20
16273;DHT22;8244;50.044;9.006;2023-03-01T10:48:18;11.50;83.60
16273;DHT22;8244;50.044;9.006;2023-03-01T10:53:25;11.70;80.90
16273;DHT22;8244;50.044;9.006;2023-03-01T10:58:30;11.80;80.40
16273;DHT22;8244;50.044;9.006;2023-03-01T11:03:33;12.00;80.90
16273;DHT22;8244;50.044;9.006;2023-03-01T11:08:39;12.10;78.10
16273;DHT22;8244;50.044;9.006;2023-03-01T11:13:55;11.90;76.30
16273;DHT22;8244;50.044;9.006;2023-03-01T11:19:17;11.90;78.70
16273;DHT22;8244;50.044;9.006;2023-03-01T11:24:23;12.10;77.20
16273;DHT22;8244;50.044;9.006;2023-03-01T11:29:31;12.00;74.50
16273;DHT22;8244;50.044;9.006;2023-03-01T11:34:43;12.00;78.10
16273;DHT22;8244;50.044;9.006;2023-03-01T11:39:53;12.50;78.80
16273;DHT22;8244;50.044;9.006;2023-03-01T11:44:59;12.70;75.80
16273;DHT22;8244;50.044;9.006;2023-03-01T11:50:12;12.60;73.50
16273;DHT22;8244;50.044;9.006;2023-03-01T11:55:36;12.60;73.70
16273;DHT22;8244;50.044;9.006;2023-03-01T12:00:51;12.50;75.20
16273;DHT22;8244;50.044;9.006;2023-03-01T12:06:00;12.40;73.30
16273;DHT22;8244;50.044;9.006;2023-03-01T12:11:16;12.40;75.80
16273;DHT22;8244;50.044;9.006;2023-03-01T12:16:38;12.40;73.90
16273;DHT22;8244;50.044;9.006;2023-03-01T12:21:53;12.60;70.00
16273;DHT22;8244;50.044;9.006;2023-03-01T12:27:12;12.70;70.70
16273;DHT22;8244;50.044;9.006;2023-03-01T12:32:27;12.70;72.40
16273;DHT22;8244;50.044;9.006;2023-03-01T12:37:38;12.90;72.30
16273;DHT22;8244;50.044;9.006;2023-03-01T12:42:49;13.20;72.90
16273;DHT22;8244;50.044;9.006;2023-03-01T12:48:10;13.40;69.70
16273;DHT22;8244;50.044;9.006;2023-03-01T12:53:22;13.00;69.70
16273;DHT22;8244;50.044;9.006;2023-03-01T12:58:28;13.00;68.50
16273;DHT22;8244;50.044;9.006;2023-03-01T13:03:38;13.00;70.10
16273;DHT22;8244;50.044;9.006;2023-03-01T13:08:51;13.10;69.90
16273;DHT22;8244;50.044;9.006;2023-03-01T13:19:36;12.50;70.50
16273;DHT22;8244;50.044;9.006;2023-03-01T13:24:39;12.30;70.60
16273;DHT22;8244;50.044;9.006;2023-03-01T13:29:47;12.30;71.00
16273;DHT22;8244;50.044;9.006;2023-03-01T13:34:55;12.20;71.70
16273;DHT22;8244;50.044;9.006;2023-03-01T13:39:59;11.80;71.50
16273;DHT22;8244;50.044;9.006;2023-03-01T13:45:21;11.50;71.90
16273;DHT22;8244;50.044;9.006;2023-03-01T13:50:25;11.30;72.50
16273;DHT22;8244;50.044;9.006;2023-03-01T13:55:36;10.90;73.40
16273;DHT22;8244;50.044;9.006;2023-03-01T14:00:39;10.80;74.30
16273;DHT22;8244;50.044;9.006;2023-03-01T14:05:44;10.70;74.10
16273;DHT22;8244;50.044;9.006;2023-03-01T14:11:23;10.30;74.50
16273;DHT22;8244;50.044;9.006;2023-03-01T14:16:38;10.20;76.70
16273;DHT22;8244;50.044;9.006;2023-03-01T14:21:46;10.20;76.10
16273;DHT22;8244;50.044;9.006;2023-03-01T14:26:48;10.00;77.60
16273;DHT22;8244;50.044;9.006;2023-03-01T14:31:50;10.00;77.70
16273;DHT22;8244;50.044;9.006;2023-03-01T14:36:53;9.90;78.90
16273;DHT22;8244;50.044;9.006;2023-03-01T14:41:55;9.80;80.00
16273;DHT22;8244;50.044;9.006;2023-03-01T14:46:57;9.70;80.80
16273;DHT22;8244;50.044;9.006;2023-03-01T14:52:02;9.60;81.00
16273;DHT22;8244;50.044;9.006;2023-03-01T14:57:04;9.60;81.20
16273;DHT22;8244;50.044;9.006;2023-03-01T15:02:11;9.50;80.40
16273;DHT22;8244;50.044;9.006;2023-03-01T15:07:19;9.40;81.20
16273;DHT22;8244;50.044;9.006;2023-03-01T15:12:35;9.20;80.40
16273;DHT22;8244;50.044;9.006;2023-03-01T15:17:38;9.10;80.80
16273;DHT22;8244;50.044;9.006;2023-03-01T15:22:43;9.10;81.60
16273;DHT22;8244;50.044;9.006;2023-03-01T15:27:50;9.10;83.10
16273;DHT22;8244;50.044;9.006;2023-03-01T15:33:18;9.00;82.40
16273;DHT22;8244;50.044;9.006;2023-03-01T15:38:31;8.90;82.80
16273;DHT22;8244;50.044;9.006;2023-03-01T15:43:44;8.70;83.20
16273;DHT22;8244;50.044;9.006;2023-03-01T15:48:47;8.70;83.50
16273;DHT22;8244;50.044;9.006;2023-03-01T15:53:52;8.60;84.60
16273;DHT22;8244;50.044;9.006;2023-03-01T15:58:57;8.50;84.80
16273;DHT22;8244;50.044;9.006;2023-03-01T16:03:59;8.40;85.60
16273;DHT22;8244;50.044;9.006;2023-03-01T16:09:02;8.20;85.00
16273;DHT22;8244;50.044;9.006;2023-03-01T16:14:04;8.10;85.70
16273;DHT22;8244;50.044;9.006;2023-03-01T16:19:05;7.90;86.30
16273;DHT22;8244;50.044;9.006;2023-03-01T16:24:08;7.80;87.20
16273;DHT22;8244;50.044;9.006;2023-03-01T16:29:10;7.60;88.00
16273;DHT22;8244;50.044;9.006;2023-03-01T16:34:12;7.50;88.90
16273;DHT22;8244;50.044;9.006;2023-03-01T16:39:15;7.30;89.50
16273;DHT22;8244;50.044;9.006;2023-03-01T16:44:17;7.10;89.70
16273;DHT22;8244;50.044;9.006;2023-03-01T16:49:19;7.00;90.00
16273;DHT22;8244;50.044;9.006;2023-03-01T16:54:22;6.80;90.10
16273;DHT22;8244;50.044;9.006;2023-03-01T16:59:24;6.60;90.10
16273;DHT22;8244;50.044;9.006;2023-03-01T17:04:25;6.50;90.40
16273;DHT22;8244;50.044;9.006;2023-03-01T17:09:28;6.30;90.70
16273;DHT22;8244;50.044;9.006;2023-03-01T17:14:30;6.10;90.90
16273;DHT22;8244;50.044;9.006;2023-03-01T17:19:32;6.00;91.00
16273;DHT22;8244;50.044;9.006;2023-03-01T17:24:38;5.90;91.10
16273;DHT22;8244;50.044;9.006;2023-03-01T17:29:41;5.80;91.10
16273;DHT22;8244;50.044;9.006;2023-03-01T17:34:42;5.70;91.10
16273;DHT22;8244;50.044;9.006;2023-03-01T17:39:47;5.60;91.50
16273;DHT22;8244;50.044;9.006;2023-03-01T17:44:48;5.50;91.50
16273;DHT22;8244;50.044;9.006;2023-03-01T17:49:50;5.40;91.80
16273;DHT22;8244;50.044;9.006;2023-03-01T17:54:53;5.30;92.00
16273;DHT22;8244;50.044;9.006;2023-03-01T17:59:54;5.20;92.00
16273;DHT22;8244;50.044;9.006;2023-03-01T18:04:57;5.10;92.40
16273;DHT22;8244;50.044;9.006;2023-03-01T18:10:00;5.00;92.50
16273;DHT22;8244;50.044;9.006;2023-03-01T18:15:02;4.80;92.90
16273;DHT22;8244;50.044;9.006;2023-03-01T18:20:06;4.80;92.90
16273;DHT22;8244;50.044;9.006;2023-03-01T18:25:10;4.70;93.10
16273;DHT22;8244;50.044;9.006;2023-03-01T18:30:13;4.60;93.10
16273;DHT22;8244;50.044;9.006;2023-03-01T18:35:14;4.50;93.20
16273;DHT22;8244;50.044;9.006;2023-03-01T18:40:17;4.40;93.20
16273;DHT22;8244;50.044;9.006;2023-03-01T18:45:19;4.40;93.30
16273;DHT22;8244;50.044;9.006;2023-03-01T18:50:21;4.30;93.60
16273;DHT22;8244;50.044;9.006;2023-03-01T18:55:24;4.20;93.60
16273;DHT22;8244;50.044;9.006;2023-03-01T19:00:26;4.10;93.60
16273;DHT22;8244;50.044;9.006;2023-03-01T19:05:28;4.10;93.80
16273;DHT22;8244;50.044;9.006;2023-03-01T19:10:32;4.00;93.90
16273;DHT22;8244;50.044;9.006;2023-03-01T19:15:33;3.90;94.20
16273;DHT22;8244;50.044;9.006;2023-03-01T19:20:35;3.90;94.20
16273;DHT22;8244;50.044;9.006;2023-03-01T19:25:38;3.80;94.40
16273;DHT22;8244;50.044;9.006;2023-03-01T19:30:39;3.70;94.50
16273;DHT22;8244;50.044;9.006;2023-03-01T19:35:41;3.60;94.60
16273;DHT22;8244;50.044;9.006;2023-03-01T19:40:44;3.50;94.90
16273;DHT22;8244;50.044;9.006;2023-03-01T19:45:49;3.40;95.10
16273;DHT22;8244;50.044;9.006;2023-03-01T19:50:52;3.40;95.20
16273;DHT22;8244;50.044;9.006;2023-03-01T19:55:57;3.30;95.40
16273;DHT22;8244;50.044;9.006;2023-03-01T20:00:59;3.20;95.50
16273;DHT22;8244;50.044;9.006;2023-03-01T20:06:08;3.00;95.50
16273;DHT22;8244;50.044;9.006;2023-03-01T20:11:12;2.90;95.80
16273;DHT22;8244;50.044;9.006;2023-03-01T20:16:15;2.80;96.20
16273;DHT22;8244;50.044;9.006;2023-03-01T20:21:17;2.70;96.40
16273;DHT22;8244;50.044;9.006;2023-03-01T20:26:22;2.50;96.70
16273;DHT22;8244;50.044;9.006;2023-03-01T20:31:25;2.40;96.90
16273;DHT22;8244;50.044;9.006;2023-03-01T20:36:28;2.20;97.20
16273;DHT22;8244;50.044;9.006;2023-03-01T20:41:31;2.10;97.90
16273;DHT22;8244;50.044;9.006;2023-03-01T20:46:34;2.00;98.30
16273;DHT22;8244;50.044;9.006;2023-03-01T20:51:35;1.90;98.70
16273;DHT22;8244;50.044;9.006;2023-03-01T20:56:38;1.80;99.10
16273;DHT22;8244;50.044;9.006;2023-03-01T21:01:40;1.70;99.90
16273;DHT22;8244;50.044;9.006;2023-03-01T21:06:42;1.60;99.90
16273;DHT22;8244;50.044;9.006;2023-03-01T21:11:47;1.60;99.90
16273;DHT22;8244;50.044;9.006;2023-03-01T21:16:49;1.60;99.90
16273;DHT22;8244;50.044;9.006;2023-03-01T21:21:51;1.60;99.90
16273;DHT22;8244;50.044;9.006;2023-03-01T21:26:54;1.50;99.90
16273;DHT22;8244;50.044;9.006;2023-03-01T21:31:55;1.50;99.90
16273;DHT22;8244;50.044;9.006;2023-03-01T21:36:57;1.40;99.90
16273;DHT22;8244;50.044;9.006;2023-03-01T21:42:02;1.40;99.90
16273;DHT22;8244;50.044;9.006;2023-03-01T21:47:04;1.40;99.90
16273;DHT22;8244;50.044;9.006;2023-03-01T21:52:06;1.40;99.90
16273;DHT22;8244;50.044;9.006;2023-03-01T21:57:09;1.30;99.90
16273;DHT22;8244;50.044;9.006;2023-03-01T22:02:11;1.30;99.90
16273;DHT22;8244;50.044;9.006;2023-03-01T22:07:13;1.30;99.90
16273;DHT22;8244;50.044;9.006;2023-03-01T22:12:16;1.30;99.90
16273;DHT22;8244;50.044;9.006;2023-03-01T22:17:18;1.30;99.90
16273;DHT22;8244;50.044;9.006;2023-03-01T22:22:19;1.30;99.90
16273;DHT22;8244;50.044;9.006;2023-03-01T22:27:22;1.30;99.90
16273;DHT22;8244;50.044;9.006;2023-03-01T22:32:24;1.20;99.90
16273;DHT22;8244;50.044;9.006;2023-03-01T22:37:26;1.20;99.90
16273;DHT22;8244;50.044;9.006;2023-03-01T22:42:29;1.20;99.90
16273;DHT22;8244;50.044;9.006;2023-03-01T22:47:30;1.10;99.90
16273;DHT22;8244;50.044;9.006;2023-03-01T22:52:33;1.10;99.90
16273;DHT22;8244;50.044;9.006;2023-03-01T22:57:36;1.00;99.90
16273;DHT22;8244;50.044;9.006;2023-03-01T23:02:38;1.00;99.90
16273;DHT22;8244;50.044;9.006;2023-03-01T23:07:40;0.90;99.90
16273;DHT22;8244;50.044;9.006;2023-03-01T23:12:45;0.80;99.90
16273;DHT22;8244;50.044;9.006;2023-03-01T23:17:47;0.80;99.90
16273;DHT22;8244;50.044;9.006;2023-03-01T23:22:48;0.80;99.90
16273;DHT22;8244;50.044;9.006;2023-03-01T23:27:51;0.70;99.90
16273;DHT22;8244;50.044;9.006;2023-03-01T23:32:53;0.70;99.90
16273;DHT22;8244;50.044;9.006;2023-03-01T23:37:55;0.60;99.90
16273;DHT22;8244;50.044;9.006;2023-03-01T23:42:58;0.60;99.90
16273;DHT22;8244;50.044;9.006;2023-03-01T23:47:59;0.60;99.90
16273;DHT22;8244;50.044;9.006;2023-03-01T23:53:02;0.60;99.90
16273;DHT22;8244;50.044;9.006;2023-03-01T23:58:05;0.60;99.90
